createdAt,value
2022-08-28T00:02:12.343Z,14.20
2022-08-28T00:04:40.788Z,14.60
2022-08-28T00:07:09.514Z,13.90
2022-08-28T00:09:38.116Z,14.80
2022-08-28T00:12:06.556Z,15.00
2022-08-28T00:14:34.843Z,12.10
2022-08-28T00:17:04.056Z,13.80
2022-08-28T00:19:36.625Z,12.20
2022-08-28T00:22:08.012Z,14.60
2022-08-28T00:24:37.082Z,10.50
2022-08-28T00:27:24.184Z,12.30
2022-08-28T00:29:52.409Z,17.10
2022-08-28T00:32:23.538Z,16.60
2022-08-28T00:34:52.243Z,14.00
2022-08-28T00:37:20.504Z,13.10
2022-08-28T00:39:52.566Z,12.40
2022-08-28T00:42:21.426Z,12.80
2022-08-28T00:44:49.589Z,13.80
2022-08-28T00:47:17.614Z,13.10
2022-08-28T00:49:53.381Z,14.50
2022-08-28T00:52:24.562Z,12.10
2022-08-28T00:55:05.881Z,13.60
2022-08-28T00:57:45.252Z,13.50
2022-08-28T01:00:20.161Z,12.80
2022-08-28T01:02:48.423Z,12.90
2022-08-28T01:05:17.581Z,13.70
2022-08-28T01:07:45.966Z,14.80
2022-08-28T01:10:18.448Z,17.40
2022-08-28T01:12:47.961Z,17.40
2022-08-28T01:15:20.765Z,15.90
2022-08-28T01:17:54.217Z,11.80
2022-08-28T01:20:31.735Z,18.10
2022-08-28T01:23:13.620Z,13.70
2022-08-28T01:25:43.034Z,13.90
2022-08-28T01:28:25.456Z,13.90
2022-08-28T01:30:53.335Z,11.50
2022-08-28T01:33:27.960Z,16.60
2022-08-28T01:35:57.044Z,13.60
2022-08-28T01:38:27.005Z,12.50
2022-08-28T01:40:58.310Z,14.40
2022-08-28T01:43:28.073Z,14.70
2022-08-28T01:46:02.126Z,14.20
2022-08-28T01:48:33.385Z,16.80
2022-08-28T01:51:01.547Z,12.90
2022-08-28T01:53:32.499Z,16.10
2022-08-28T01:56:04.898Z,13.50
2022-08-28T01:58:37.907Z,14.40
2022-08-28T02:01:11.769Z,15.20
2022-08-28T02:03:40.870Z,14.80
2022-08-28T02:06:09.699Z,12.70
2022-08-28T02:08:37.907Z,16.20
2022-08-28T02:11:07.690Z,12.30
2022-08-28T02:13:36.577Z,13.30
2022-08-28T02:16:09.129Z,13.40
2022-08-28T02:18:38.455Z,15.10
2022-08-28T02:21:08.458Z,18.40
2022-08-28T02:23:42.403Z,14.40
2022-08-28T02:26:12.298Z,13.90
2022-08-28T02:28:41.406Z,14.40
2022-08-28T02:31:09.846Z,14.60
2022-08-28T02:33:39.789Z,11.00
2022-08-28T02:36:09.624Z,13.50
2022-08-28T02:38:38.444Z,14.90
2022-08-28T02:41:07.182Z,14.20
2022-08-28T02:43:35.863Z,13.60
2022-08-28T02:46:05.245Z,12.50
2022-08-28T02:48:35.699Z,13.50
2022-08-28T02:51:14.253Z,13.10
2022-08-28T02:53:42.955Z,13.60
2022-08-28T02:56:12.186Z,13.70
2022-08-28T02:58:44.153Z,13.90
2022-08-28T03:01:21.653Z,15.30
2022-08-28T03:03:49.725Z,14.40
2022-08-28T03:06:17.687Z,12.40
2022-08-28T03:08:45.788Z,16.00
2022-08-28T03:11:13.847Z,12.30
2022-08-28T03:13:42.516Z,12.40
2022-08-28T03:16:11.589Z,14.40
2022-08-28T03:18:40.151Z,15.20
2022-08-28T03:21:09.390Z,11.20
2022-08-28T03:23:38.589Z,12.50
2022-08-28T03:26:09.865Z,14.40
2022-08-28T03:28:47.305Z,12.20
2022-08-28T03:31:19.902Z,12.90
2022-08-28T03:33:48.648Z,12.90
2022-08-28T03:36:21.792Z,13.60
2022-08-28T03:38:51.722Z,10.80
2022-08-28T03:41:23.528Z,15.70
2022-08-28T03:43:51.961Z,13.80
2022-08-28T03:46:23.770Z,10.80
2022-08-28T03:48:53.611Z,14.00
2022-08-28T03:51:29.789Z,11.60
2022-08-28T03:53:59.796Z,11.30
2022-08-28T03:56:30.366Z,11.90
2022-08-28T03:59:01.456Z,12.40
2022-08-28T04:01:29.971Z,15.90
2022-08-28T04:03:58.127Z,14.60
2022-08-28T04:06:27.999Z,16.30
2022-08-28T04:09:00.062Z,14.20
2022-08-28T04:11:29.388Z,11.50
2022-08-28T04:13:58.111Z,10.50
2022-08-28T04:16:26.017Z,13.70
2022-08-28T04:18:54.658Z,13.90
2022-08-28T04:21:24.457Z,13.30
2022-08-28T04:23:52.770Z,15.50
2022-08-28T04:26:23.025Z,12.60
2022-08-28T04:28:52.704Z,15.50
2022-08-28T04:31:31.773Z,12.80
2022-08-28T04:34:03.652Z,14.40
2022-08-28T04:36:33.894Z,13.50
2022-08-28T04:39:05.644Z,13.30
2022-08-28T04:41:33.490Z,15.40
2022-08-28T04:44:01.753Z,12.30
2022-08-28T04:46:31.067Z,13.10
2022-08-28T04:48:59.699Z,15.60
2022-08-28T04:51:28.161Z,18.10
2022-08-28T04:53:57.451Z,16.80
2022-08-28T04:56:26.660Z,11.70
2022-08-28T04:58:54.938Z,15.40
2022-08-28T05:01:24.773Z,11.30
2022-08-28T05:03:57.885Z,13.40
2022-08-28T05:06:28.818Z,19.00
2022-08-28T05:08:59.341Z,13.00
2022-08-28T05:11:34.078Z,14.20
2022-08-28T05:14:12.733Z,11.90
2022-08-28T05:16:49.751Z,13.90
2022-08-28T05:19:19.538Z,14.30
2022-08-28T05:21:48.219Z,16.30
2022-08-28T05:24:16.566Z,14.60
2022-08-28T05:26:44.930Z,12.90
2022-08-28T05:29:17.118Z,13.80
2022-08-28T05:31:46.295Z,14.50
2022-08-28T05:34:15.338Z,13.00
2022-08-28T05:36:43.475Z,11.20
2022-08-28T05:39:12.505Z,11.50
2022-08-28T05:41:45.004Z,14.80
2022-08-28T05:44:16.608Z,13.70
2022-08-28T05:46:48.195Z,13.20
2022-08-28T05:49:19.569Z,15.40
2022-08-28T05:51:49.219Z,15.90
2022-08-28T05:54:17.743Z,14.60
2022-08-28T05:56:46.606Z,13.80
2022-08-28T05:59:16.065Z,12.80
2022-08-28T06:01:47.233Z,13.20
2022-08-28T06:04:21.930Z,13.60
2022-08-28T06:06:50.240Z,14.90
2022-08-28T06:09:29.601Z,16.40
2022-08-28T06:12:00.965Z,12.80
2022-08-28T06:14:31.621Z,15.00
2022-08-28T06:17:01.865Z,14.00
2022-08-28T06:19:31.613Z,13.30
2022-08-28T06:22:07.098Z,14.60
2022-08-28T06:24:37.724Z,13.40
2022-08-28T06:27:06.398Z,15.90
2022-08-28T06:29:34.507Z,13.80
2022-08-28T06:32:05.126Z,13.10
2022-08-28T06:34:33.576Z,11.90
2022-08-28T06:37:01.863Z,11.20
2022-08-28T06:39:30.056Z,12.90
2022-08-28T06:41:58.466Z,12.20
2022-08-28T06:44:27.517Z,12.50
2022-08-28T06:46:55.742Z,13.90
2022-08-28T06:49:24.090Z,13.80
2022-08-28T06:51:52.044Z,11.90
2022-08-28T06:54:23.218Z,15.30
2022-08-28T06:56:52.259Z,13.20
2022-08-28T06:59:20.841Z,15.40
2022-08-28T07:01:49.421Z,14.40
2022-08-28T07:04:17.554Z,14.80
2022-08-28T07:06:53.637Z,12.90
2022-08-28T07:09:27.116Z,13.50
2022-08-28T07:11:58.555Z,12.50
2022-08-28T07:14:26.860Z,14.70
2022-08-28T07:16:55.638Z,14.90
2022-08-28T07:19:23.642Z,14.20
2022-08-28T07:21:51.978Z,12.10
2022-08-28T07:24:20.359Z,16.30
2022-08-28T07:26:48.525Z,13.60
2022-08-28T07:29:17.420Z,13.40
2022-08-28T07:31:49.293Z,14.20
2022-08-28T07:34:19.532Z,15.40
2022-08-28T07:36:48.206Z,12.60
2022-08-28T07:39:16.264Z,15.70
2022-08-28T07:41:44.967Z,12.80
2022-08-28T07:44:34.015Z,12.90
2022-08-28T07:47:05.974Z,16.30
2022-08-28T07:49:35.278Z,14.00
2022-08-28T07:52:04.864Z,12.70
2022-08-28T07:54:33.061Z,15.50
2022-08-28T07:57:02.385Z,13.10
2022-08-28T07:59:36.651Z,15.00
2022-08-28T08:02:06.118Z,14.30
2022-08-28T08:04:35.362Z,14.20
2022-08-28T08:07:04.272Z,14.30
2022-08-28T08:09:37.662Z,13.70
2022-08-28T08:12:10.298Z,13.60
2022-08-28T08:14:40.310Z,13.10
2022-08-28T08:17:08.960Z,12.40
2022-08-28T08:19:37.374Z,12.00
2022-08-28T08:22:06.489Z,12.50
2022-08-28T08:24:34.526Z,10.70
2022-08-28T08:27:02.972Z,10.30
2022-08-28T08:29:35.633Z,14.20
2022-08-28T08:32:07.318Z,13.40
2022-08-28T08:34:39.001Z,11.00
2022-08-28T08:37:07.570Z,14.90
2022-08-28T08:39:38.046Z,9.60
2022-08-28T08:42:19.146Z,14.60
2022-08-28T08:44:50.351Z,10.50
2022-08-28T08:47:43.767Z,10.60
2022-08-28T08:50:27.634Z,10.30
2022-08-28T08:53:20.697Z,13.50
2022-08-28T08:55:54.170Z,9.30
2022-08-28T08:58:31.925Z,10.70
2022-08-28T09:01:31.326Z,9.90
2022-08-28T09:04:08.715Z,12.30
2022-08-28T09:06:57.035Z,10.60
2022-08-28T09:09:35.329Z,9.80
2022-08-28T09:12:15.088Z,8.50
2022-08-28T09:15:17.748Z,10.00
2022-08-28T09:17:57.286Z,12.30
2022-08-28T09:20:32.522Z,10.80
2022-08-28T09:23:13.165Z,10.20
2022-08-28T09:25:45.387Z,10.10
2022-08-28T09:28:38.516Z,9.70
2022-08-28T09:31:08.810Z,11.30
2022-08-28T09:33:42.315Z,9.70
2022-08-28T09:36:31.802Z,12.00
2022-08-28T09:39:12.887Z,9.10
2022-08-28T09:42:07.203Z,11.10
2022-08-28T09:44:51.327Z,10.10
2022-08-28T09:47:52.389Z,9.60
2022-08-28T09:50:34.871Z,13.10
2022-08-28T09:53:11.873Z,12.80
2022-08-28T09:56:19.703Z,10.20
2022-08-28T09:59:10.030Z,10.60
2022-08-28T10:01:44.744Z,10.90
2022-08-28T10:04:16.983Z,9.80
2022-08-28T10:07:09.431Z,9.90
2022-08-28T10:10:08.666Z,8.90
2022-08-28T10:13:01.655Z,10.10
2022-08-28T10:16:12.293Z,8.80
2022-08-28T10:19:03.099Z,9.00
2022-08-28T10:22:11.285Z,11.30
2022-08-28T10:25:05.334Z,12.70
2022-08-28T10:27:55.218Z,11.90
2022-08-28T10:30:25.408Z,11.10
2022-08-28T10:33:15.599Z,11.00
2022-08-28T10:35:50.935Z,9.60
2022-08-28T10:38:42.936Z,9.30
2022-08-28T10:41:20.083Z,12.20
2022-08-28T10:43:51.346Z,9.70
2022-08-28T10:46:29.664Z,12.60
2022-08-28T10:49:37.247Z,8.90
2022-08-28T10:52:45.073Z,9.20
2022-08-28T10:55:25.676Z,11.60
2022-08-28T10:58:03.414Z,9.30
2022-08-28T11:00:32.570Z,14.10
2022-08-28T11:03:33.179Z,11.10
2022-08-28T11:06:08.844Z,10.30
2022-08-28T11:08:40.026Z,13.50
2022-08-28T11:11:14.952Z,10.60
2022-08-28T11:13:59.805Z,11.70
2022-08-28T11:16:28.286Z,11.80
2022-08-28T11:19:07.422Z,9.90
2022-08-28T11:21:52.558Z,11.50
2022-08-28T11:24:34.105Z,11.10
2022-08-28T11:27:17.224Z,11.20
2022-08-28T11:30:10.987Z,8.70
2022-08-28T11:32:51.113Z,9.90
2022-08-28T11:35:30.954Z,10.70
2022-08-28T11:37:59.048Z,11.40
2022-08-28T11:40:30.005Z,12.60
2022-08-28T11:43:19.247Z,12.10
2022-08-28T11:45:47.591Z,10.20
2022-08-28T11:48:37.609Z,10.60
2022-08-28T11:51:18.364Z,10.20
2022-08-28T11:53:55.435Z,9.80
2022-08-28T11:56:55.508Z,10.40
2022-08-28T11:59:44.930Z,11.50
2022-08-28T12:02:41.697Z,9.30
2022-08-28T12:05:12.637Z,12.00
2022-08-28T12:07:48.526Z,9.60
2022-08-28T12:10:22.811Z,9.70
2022-08-28T12:12:57.506Z,9.70
2022-08-28T12:15:28.599Z,12.10
2022-08-28T12:18:00.820Z,10.10
2022-08-28T12:25:15.847Z,10.20
2022-08-28T12:27:59.501Z,10.20
2022-08-28T12:30:53.182Z,10.80
2022-08-28T12:33:57.815Z,8.10
2022-08-28T12:36:36.169Z,9.40
2022-08-28T12:39:04.038Z,8.70
2022-08-28T12:41:33.193Z,9.30
2022-08-28T12:44:01.985Z,10.80
2022-08-28T12:46:36.472Z,8.30
2022-08-28T12:49:29.811Z,9.80
2022-08-28T12:52:27.316Z,11.40
2022-08-28T12:54:55.966Z,10.50
2022-08-28T12:57:25.481Z,9.40
2022-08-28T12:59:55.634Z,9.80
2022-08-28T13:02:30.651Z,9.70
2022-08-28T13:05:05.591Z,8.80
2022-08-28T13:07:38.903Z,12.90
2022-08-28T13:10:24.269Z,10.80
2022-08-28T13:12:59.737Z,9.30
2022-08-28T13:15:47.927Z,8.50
2022-08-28T13:18:34.565Z,9.80
2022-08-28T13:21:37.439Z,11.50
2022-08-28T13:24:34.884Z,9.80
2022-08-28T13:27:23.735Z,9.20
2022-08-28T13:30:02.968Z,9.40
2022-08-28T13:32:34.115Z,10.90
2022-08-28T13:35:10.317Z,11.40
2022-08-28T13:37:46.957Z,10.00
2022-08-28T13:40:45.898Z,12.00
2022-08-28T13:43:11.165Z,10.80
2022-08-28T13:45:44.868Z,8.20
2022-08-28T13:48:15.803Z,9.80
2022-08-28T13:50:47.602Z,11.80
2022-08-28T13:53:19.010Z,9.20
2022-08-28T13:55:49.625Z,11.70
2022-08-28T13:58:18.529Z,8.80
2022-08-28T14:00:49.871Z,10.50
2022-08-28T14:03:37.732Z,9.80
2022-08-28T14:06:11.986Z,10.10
2022-08-28T14:08:41.891Z,11.60
2022-08-28T14:11:12.517Z,9.00
2022-08-28T14:13:46.903Z,8.70
2022-08-28T14:16:25.534Z,10.40
2022-08-28T14:18:54.262Z,9.50
2022-08-28T14:21:24.622Z,10.20
2022-08-28T14:23:52.916Z,9.80
2022-08-28T14:26:21.193Z,9.50
2022-08-28T14:28:49.304Z,9.70
2022-08-28T14:31:17.564Z,8.90
2022-08-28T14:33:47.150Z,8.20
2022-08-28T14:36:17.622Z,12.20
2022-08-28T14:38:45.543Z,9.40
2022-08-28T14:41:15.063Z,8.60
2022-08-28T14:43:44.553Z,10.80
2022-08-28T14:46:28.751Z,11.60
2022-08-28T14:48:59.549Z,11.90
2022-08-28T14:51:28.079Z,7.90
2022-08-28T14:53:56.232Z,9.00
2022-08-28T14:56:24.472Z,10.30
2022-08-28T14:58:53.335Z,9.30
2022-08-28T15:01:40.250Z,7.40
2022-08-28T15:04:13.600Z,8.80
2022-08-28T15:06:42.793Z,8.40
2022-08-28T15:09:12.406Z,9.60
2022-08-28T15:11:42.212Z,9.90
2022-08-28T15:14:11.036Z,12.80
2022-08-28T15:16:43.852Z,9.70
2022-08-28T15:19:16.081Z,10.50
2022-08-28T15:21:47.657Z,11.30
2022-08-28T15:24:20.775Z,13.50
2022-08-28T15:26:48.889Z,11.90
2022-08-28T15:29:16.998Z,10.00
2022-08-28T15:31:49.708Z,10.60
2022-08-28T15:34:21.421Z,12.30
2022-08-28T15:36:54.780Z,12.20
2022-08-28T15:39:44.746Z,11.70
2022-08-28T15:42:13.910Z,9.90
2022-08-28T15:44:42.461Z,9.40
2022-08-28T15:47:12.659Z,10.20
2022-08-28T15:49:46.887Z,9.70
2022-08-28T15:52:19.226Z,11.20
2022-08-28T15:54:49.022Z,12.50
2022-08-28T15:57:17.808Z,10.70
2022-08-28T15:59:50.779Z,11.40
2022-08-28T16:02:23.147Z,9.00
2022-08-28T16:04:52.636Z,9.20
2022-08-28T16:07:22.164Z,11.90
2022-08-28T16:09:50.257Z,10.70
2022-08-28T16:12:19.154Z,11.30
2022-08-28T16:14:50.466Z,11.20
2022-08-28T16:17:19.271Z,12.50
2022-08-28T16:19:48.243Z,11.40
2022-08-28T16:22:17.581Z,11.70
2022-08-28T16:24:46.124Z,11.60
2022-08-28T16:27:15.684Z,13.30
2022-08-28T16:30:02.802Z,13.00
2022-08-28T16:32:31.352Z,11.60
2022-08-28T16:34:59.387Z,12.70
2022-08-28T16:37:37.596Z,11.20
2022-08-28T16:40:11.714Z,13.60
2022-08-28T16:42:51.454Z,12.70
2022-08-28T16:45:20.607Z,18.70
2022-08-28T16:47:49.344Z,15.40
2022-08-28T16:50:19.581Z,16.50
2022-08-28T16:52:47.760Z,13.80
2022-08-28T16:55:15.904Z,16.70
2022-08-28T16:57:44.221Z,13.90
2022-08-28T17:00:13.811Z,13.40
2022-08-28T17:02:42.621Z,12.90
2022-08-28T17:05:14.269Z,12.20
2022-08-28T17:07:43.552Z,10.20
2022-08-28T17:10:14.063Z,7.50
2022-08-28T17:12:41.945Z,9.20
2022-08-28T17:15:11.446Z,8.20
2022-08-28T17:17:40.110Z,8.10
2022-08-28T17:20:30.938Z,7.60
2022-08-28T17:22:58.843Z,12.70
2022-08-28T17:25:26.916Z,8.30
2022-08-28T17:27:55.155Z,8.10
2022-08-28T17:30:23.622Z,7.80
2022-08-28T17:32:51.945Z,7.20
2022-08-28T17:35:19.903Z,7.80
2022-08-28T17:37:48.097Z,9.30
2022-08-28T17:40:17.465Z,9.10
2022-08-28T17:42:45.891Z,7.00
2022-08-28T17:45:15.257Z,8.50
2022-08-28T17:47:43.604Z,9.60
2022-08-28T17:50:12.160Z,8.20
2022-08-28T17:52:40.432Z,8.30
2022-08-28T17:55:09.269Z,10.10
2022-08-28T17:57:39.544Z,7.50
2022-08-28T18:00:11.463Z,7.90
2022-08-28T18:02:43.670Z,7.20
2022-08-28T18:05:13.542Z,9.10
2022-08-28T18:07:42.221Z,10.20
2022-08-28T18:10:11.965Z,8.30
2022-08-28T18:12:42.081Z,9.40
2022-08-28T18:15:13.098Z,8.80
2022-08-28T18:17:43.103Z,6.90
2022-08-28T18:20:12.416Z,6.70
2022-08-28T18:22:40.387Z,5.50
2022-08-28T18:25:29.566Z,7.20
2022-08-28T18:27:57.798Z,5.70
2022-08-28T18:30:27.162Z,9.50
2022-08-28T18:32:59.129Z,6.90
2022-08-28T18:35:31.929Z,5.60
2022-08-28T18:38:01.705Z,6.50
2022-08-28T18:40:30.409Z,6.40
2022-08-28T18:42:58.800Z,6.40
2022-08-28T18:45:27.650Z,6.00
2022-08-28T18:47:58.099Z,6.30
2022-08-28T18:50:28.591Z,9.00
2022-08-28T18:53:11.839Z,5.70
2022-08-28T18:55:39.805Z,6.20
2022-08-28T18:58:15.426Z,5.50
2022-08-28T19:00:45.694Z,6.00
2022-08-28T19:03:14.653Z,6.40
2022-08-28T19:05:42.614Z,5.20
2022-08-28T19:08:10.738Z,7.80
2022-08-28T19:10:38.972Z,6.00
2022-08-28T19:13:08.296Z,7.00
2022-08-28T19:15:36.998Z,7.10
2022-08-28T19:18:05.870Z,7.30
2022-08-28T19:20:34.631Z,10.70
2022-08-28T19:23:02.571Z,9.30
2022-08-28T19:25:31.177Z,7.70
2022-08-28T19:28:02.721Z,6.90
2022-08-28T19:30:33.970Z,7.40
2022-08-28T19:33:05.749Z,8.40
2022-08-28T19:35:34.019Z,8.90
2022-08-28T19:38:02.294Z,9.90
2022-08-28T19:40:31.930Z,10.00
2022-08-28T19:43:00.852Z,11.80
2022-08-28T19:45:31.854Z,8.10
2022-08-28T19:48:01.568Z,8.30
2022-08-28T19:50:29.608Z,7.70
2022-08-28T19:52:57.819Z,7.00
2022-08-28T19:55:28.151Z,6.20
2022-08-28T19:57:56.790Z,6.10
2022-08-28T20:00:33.166Z,7.40
2022-08-28T20:03:01.199Z,6.60
2022-08-28T20:05:29.260Z,9.60
2022-08-28T20:07:57.300Z,9.60
2022-08-28T20:10:27.392Z,8.10
2022-08-28T20:12:55.424Z,8.00
2022-08-28T20:15:24.151Z,10.60
2022-08-28T20:17:52.212Z,7.00
2022-08-28T20:20:22.434Z,7.80
2022-08-28T20:22:54.051Z,9.50
2022-08-28T20:25:22.478Z,6.60
2022-08-28T20:27:50.389Z,9.30
2022-08-28T20:30:18.439Z,8.30
2022-08-28T20:32:46.567Z,8.80
2022-08-28T20:35:15.495Z,6.40
2022-08-28T20:37:44.941Z,7.50
2022-08-28T20:40:16.633Z,7.50
2022-08-28T20:42:45.469Z,9.40
2022-08-28T20:45:15.563Z,7.90
2022-08-28T20:47:44.595Z,8.20
2022-08-28T20:50:14.231Z,7.40
2022-08-28T20:52:42.235Z,8.70
2022-08-28T20:55:12.757Z,8.60
2022-08-28T20:57:41.701Z,8.10
2022-08-28T21:00:10.941Z,9.10
2022-08-28T21:02:39.873Z,7.80
2022-08-28T21:05:09.237Z,8.60
2022-08-28T21:07:37.912Z,7.70
2022-08-28T21:10:07.934Z,8.60
2022-08-28T21:12:38.547Z,7.10
2022-08-28T21:15:10.152Z,9.20
2022-08-28T21:17:38.708Z,9.20
2022-08-28T21:20:12.005Z,7.90
2022-08-28T21:22:41.404Z,8.20
2022-08-28T21:25:11.092Z,9.00
2022-08-28T21:27:39.955Z,8.40
2022-08-28T21:30:11.357Z,6.90
2022-08-28T21:32:39.468Z,9.30
2022-08-28T21:35:13.114Z,8.80
2022-08-28T21:37:42.209Z,7.50
2022-08-28T21:40:13.475Z,7.80
2022-08-28T21:42:41.885Z,7.90
2022-08-28T21:45:12.163Z,7.20
2022-08-28T21:47:48.724Z,7.60
2022-08-28T21:50:17.733Z,7.10
2022-08-28T21:52:46.192Z,7.70
2022-08-28T21:55:16.357Z,7.70
2022-08-28T21:57:44.784Z,7.70
2022-08-28T22:00:17.651Z,9.10
2022-08-28T22:02:46.743Z,6.10
2022-08-28T22:05:16.175Z,7.50
2022-08-28T22:07:45.139Z,7.10
2022-08-28T22:10:20.350Z,7.70
2022-08-28T22:12:49.354Z,7.60
2022-08-28T22:15:17.725Z,8.10
2022-08-28T22:17:45.821Z,10.20
2022-08-28T22:20:13.923Z,8.30
2022-08-28T22:23:00.663Z,9.70
2022-08-28T22:25:28.963Z,9.10
2022-08-28T22:27:57.815Z,9.10
2022-08-28T22:30:25.813Z,9.30
2022-08-28T22:32:55.079Z,9.30
2022-08-28T22:35:23.409Z,9.20
2022-08-28T22:37:51.276Z,8.10
2022-08-28T22:40:20.427Z,10.60
2022-08-28T22:42:48.623Z,11.60
2022-08-28T22:45:18.286Z,10.00
2022-08-28T22:47:49.705Z,10.50
2022-08-28T22:50:18.831Z,11.00
2022-08-28T22:52:48.487Z,12.30
2022-08-28T22:55:18.729Z,11.70
2022-08-28T22:57:47.703Z,10.90
2022-08-28T23:00:20.574Z,13.50
2022-08-28T23:02:50.128Z,11.50
2022-08-28T23:05:18.792Z,12.80
2022-08-28T23:07:46.724Z,14.00
2022-08-28T23:10:15.967Z,12.90
2022-08-28T23:12:43.879Z,12.70
2022-08-28T23:15:18.158Z,14.60
2022-08-28T23:17:46.405Z,13.00
2022-08-28T23:20:17.625Z,13.10
2022-08-28T23:22:46.263Z,11.50
2022-08-28T23:25:17.483Z,11.50
2022-08-28T23:27:46.536Z,11.20
2022-08-28T23:30:16.770Z,12.00
2022-08-28T23:32:45.460Z,13.90
2022-08-28T23:35:14.652Z,15.40
2022-08-28T23:37:48.149Z,14.50
2022-08-28T23:40:20.104Z,17.10
2022-08-28T23:42:49.110Z,15.20
2022-08-28T23:45:19.232Z,14.40
2022-08-28T23:47:47.808Z,15.70
2022-08-28T23:50:21.303Z,16.40
2022-08-28T23:52:49.821Z,13.30
2022-08-28T23:55:19.627Z,16.40
2022-08-28T23:57:47.804Z,15.40
